Terminal Aerodrome Forecast
Issued by NWS

Home | Current Version | Previous Version | Text Only | Print | Product List | Glossary Off
Versions: 1 2 3 4 5 6 7 8 9 10 11 12 13 14 15 16 17 18 19 20 21 22 23 24 25 26

000
FTUS42 KMHX 120500
TAFOAJ
TAF
KOAJ 120540Z 1206/1306 21004KT P6SM BKN080
     FM121300 28006KT P6SM VCSH OVC040
     FM122000 07005KT P6SM VCTS OVC025CB
     FM130100 05004KT 5SM -SHRA BR BKN008 OVC012
      AMD LTD TO CLD VIS AND WIND=

USA.gov is the U.S. government's official web portal to all federal, state and local government web resources and services.